sensor_id;sensor_type;location;lat;lon;timestamp;pressure;altitude;pressure_sealevel;temperature
16759;BMP280;8497;51.346;12.396;2024-03-25T00:01:08;98787.16;;;8.06
16759;BMP280;8497;51.346;12.396;2024-03-25T00:03:35;98786.00;;;7.93
16759;BMP280;8497;51.346;12.396;2024-03-25T00:06:02;98784.13;;;7.86
16759;BMP280;8497;51.346;12.396;2024-03-25T00:08:34;98776.41;;;7.79
16759;BMP280;8497;51.346;12.396;2024-03-25T00:11:04;98783.84;;;7.76
16759;BMP280;8497;51.346;12.396;2024-03-25T00:13:31;98785.53;;;7.77
16759;BMP280;8497;51.346;12.396;2024-03-25T00:15:58;98787.41;;;7.84
16759;BMP280;8497;51.346;12.396;2024-03-25T00:18:25;98785.06;;;7.90
16759;BMP280;8497;51.346;12.396;2024-03-25T00:20:52;98790.19;;;7.93
16759;BMP280;8497;51.346;12.396;2024-03-25T00:23:19;98790.22;;;7.96
16759;BMP280;8497;51.346;12.396;2024-03-25T00:25:46;98795.41;;;8.02
16759;BMP280;8497;51.346;12.396;2024-03-25T00:28:15;98791.41;;;8.07
16759;BMP280;8497;51.346;12.396;2024-03-25T00:30:42;98791.44;;;8.10
16759;BMP280;8497;51.346;12.396;2024-03-25T00:33:12;98805.81;;;8.14
16759;BMP280;8497;51.346;12.396;2024-03-25T00:35:52;98799.25;;;8.19
16759;BMP280;8497;51.346;12.396;2024-03-25T00:38:28;98794.16;;;8.16
16759;BMP280;8497;51.346;12.396;2024-03-25T00:40:57;98805.09;;;8.18
16759;BMP280;8497;51.346;12.396;2024-03-25T00:43:28;98798.28;;;8.14
16759;BMP280;8497;51.346;12.396;2024-03-25T00:45:56;98804.84;;;8.10
16759;BMP280;8497;51.346;12.396;2024-03-25T00:48:23;98800.69;;;8.11
16759;BMP280;8497;51.346;12.396;2024-03-25T00:50:50;98804.97;;;8.13
16759;BMP280;8497;51.346;12.396;2024-03-25T00:53:20;98795.78;;;8.14
16759;BMP280;8497;51.346;12.396;2024-03-25T00:55:46;98804.94;;;8.12
16759;BMP280;8497;51.346;12.396;2024-03-25T00:58:14;98804.81;;;8.09
16759;BMP280;8497;51.346;12.396;2024-03-25T01:00:43;98802.25;;;8.07
16759;BMP280;8497;51.346;12.396;2024-03-25T01:03:10;98800.50;;;8.05
16759;BMP280;8497;51.346;12.396;2024-03-25T01:05:37;98798.84;;;8.04
16759;BMP280;8497;51.346;12.396;2024-03-25T01:08:05;98804.69;;;8.04
16759;BMP280;8497;51.346;12.396;2024-03-25T01:10:32;98805.63;;;8.08
16759;BMP280;8497;51.346;12.396;2024-03-25T01:12:59;98816.47;;;8.08
16759;BMP280;8497;51.346;12.396;2024-03-25T01:15:26;98811.59;;;8.11
16759;BMP280;8497;51.346;12.396;2024-03-25T01:18:03;98825.16;;;8.18
16759;BMP280;8497;51.346;12.396;2024-03-25T01:20:31;98820.22;;;8.21
16759;BMP280;8497;51.346;12.396;2024-03-25T01:23:05;98832.78;;;8.21
16759;BMP280;8497;51.346;12.396;2024-03-25T01:25:38;98820.94;;;8.17
16759;BMP280;8497;51.346;12.396;2024-03-25T01:28:25;98829.22;;;8.14
16759;BMP280;8497;51.346;12.396;2024-03-25T01:30:52;98823.38;;;8.14
16759;BMP280;8497;51.346;12.396;2024-03-25T01:33:21;98825.16;;;8.18
16759;BMP280;8497;51.346;12.396;2024-03-25T01:35:48;98824.22;;;8.14
16759;BMP280;8497;51.346;12.396;2024-03-25T01:38:15;98831.78;;;8.16
16759;BMP280;8497;51.346;12.396;2024-03-25T01:40:42;98836.09;;;8.20
16759;BMP280;8497;51.346;12.396;2024-03-25T01:43:11;98837.81;;;8.22
16759;BMP280;8497;51.346;12.396;2024-03-25T01:45:38;98847.00;;;8.21
16759;BMP280;8497;51.346;12.396;2024-03-25T01:48:08;98841.91;;;8.19
16759;BMP280;8497;51.346;12.396;2024-03-25T01:50:41;98857.03;;;8.21
16759;BMP280;8497;51.346;12.396;2024-03-25T01:53:11;98852.72;;;8.16
16759;BMP280;8497;51.346;12.396;2024-03-25T01:55:39;98847.63;;;8.13
16759;BMP280;8497;51.346;12.396;2024-03-25T01:58:07;98856.75;;;8.11
16759;BMP280;8497;51.346;12.396;2024-03-25T02:00:34;98856.63;;;8.08
16759;BMP280;8497;51.346;12.396;2024-03-25T02:03:03;98860.81;;;8.08
16759;BMP280;8497;51.346;12.396;2024-03-25T02:05:29;98859.19;;;8.10
16759;BMP280;8497;51.346;12.396;2024-03-25T02:07:59;98862.63;;;8.12
16759;BMP280;8497;51.346;12.396;2024-03-25T02:10:26;98864.19;;;8.10
16759;BMP280;8497;51.346;12.396;2024-03-25T02:12:55;98857.50;;;8.09
16759;BMP280;8497;51.346;12.396;2024-03-25T02:15:22;98861.59;;;8.05
16759;BMP280;8497;51.346;12.396;2024-03-25T02:17:52;98870.84;;;8.08
16759;BMP280;8497;51.346;12.396;2024-03-25T02:20:19;98868.38;;;8.09
16759;BMP280;8497;51.346;12.396;2024-03-25T02:22:47;98876.81;;;8.11
16759;BMP280;8497;51.346;12.396;2024-03-25T02:25:17;98866.78;;;8.11
16759;BMP280;8497;51.346;12.396;2024-03-25T02:27:46;98875.91;;;8.09
16759;BMP280;8497;51.346;12.396;2024-03-25T02:30:14;98873.44;;;8.11
16759;BMP280;8497;51.346;12.396;2024-03-25T02:32:42;98888.59;;;8.14
16759;BMP280;8497;51.346;12.396;2024-03-25T02:35:13;98880.91;;;8.09
16759;BMP280;8497;51.346;12.396;2024-03-25T02:37:43;98884.16;;;8.05
16759;BMP280;8497;51.346;12.396;2024-03-25T02:40:10;98887.50;;;8.06
16759;BMP280;8497;51.346;12.396;2024-03-25T02:42:40;98890.72;;;8.02
16759;BMP280;8497;51.346;12.396;2024-03-25T02:45:09;98897.28;;;7.97
16759;BMP280;8497;51.346;12.396;2024-03-25T02:47:37;98896.34;;;7.93
16759;BMP280;8497;51.346;12.396;2024-03-25T02:50:05;98905.38;;;7.87
16759;BMP280;8497;51.346;12.396;2024-03-25T02:52:32;98902.72;;;7.82
16759;BMP280;8497;51.346;12.396;2024-03-25T02:54:59;98905.94;;;7.78
16759;BMP280;8497;51.346;12.396;2024-03-25T02:57:27;98911.72;;;7.76
16759;BMP280;8497;51.346;12.396;2024-03-25T02:59:53;98917.69;;;7.79
16759;BMP280;8497;51.346;12.396;2024-03-25T03:02:22;98911.00;;;7.80
16759;BMP280;8497;51.346;12.396;2024-03-25T03:04:49;98923.53;;;7.80
16759;BMP280;8497;51.346;12.396;2024-03-25T03:07:16;98941.97;;;7.82
16759;BMP280;8497;51.346;12.396;2024-03-25T03:09:43;98932.13;;;7.88
16759;BMP280;8497;51.346;12.396;2024-03-25T03:12:11;98933.94;;;7.92
16759;BMP280;8497;51.346;12.396;2024-03-25T03:14:37;98934.75;;;7.92
16759;BMP280;8497;51.346;12.396;2024-03-25T03:17:05;98949.22;;;7.99
16759;BMP280;8497;51.346;12.396;2024-03-25T03:19:35;98944.19;;;7.99
16759;BMP280;8497;51.346;12.396;2024-03-25T03:22:03;98944.16;;;7.98
16759;BMP280;8497;51.346;12.396;2024-03-25T03:24:30;98950.88;;;8.00
16759;BMP280;8497;51.346;12.396;2024-03-25T03:26:57;98964.31;;;8.01
16759;BMP280;8497;51.346;12.396;2024-03-25T03:29:24;98957.44;;;7.95
16759;BMP280;8497;51.346;12.396;2024-03-25T03:31:51;98944.84;;;7.94
16759;BMP280;8497;51.346;12.396;2024-03-25T03:34:18;98960.78;;;7.96
16759;BMP280;8497;51.346;12.396;2024-03-25T03:36:47;98967.41;;;7.94
16759;BMP280;8497;51.346;12.396;2024-03-25T03:39:15;98965.69;;;7.91
16759;BMP280;8497;51.346;12.396;2024-03-25T03:41:43;98971.56;;;7.92
16759;BMP280;8497;51.346;12.396;2024-03-25T03:44:10;98975.63;;;7.88
16759;BMP280;8497;51.346;12.396;2024-03-25T03:46:38;98973.28;;;7.94
16759;BMP280;8497;51.346;12.396;2024-03-25T03:49:06;98978.22;;;7.91
16759;BMP280;8497;51.346;12.396;2024-03-25T03:51:34;98988.16;;;7.88
16759;BMP280;8497;51.346;12.396;2024-03-25T03:54:02;98998.16;;;7.87
16759;BMP280;8497;51.346;12.396;2024-03-25T03:56:30;98995.59;;;7.85
16759;BMP280;8497;51.346;12.396;2024-03-25T03:58:56;99004.91;;;7.89
16759;BMP280;8497;51.346;12.396;2024-03-25T04:01:24;99007.66;;;7.97
16759;BMP280;8497;51.346;12.396;2024-03-25T04:03:50;99016.06;;;7.99
16759;BMP280;8497;51.346;12.396;2024-03-25T04:06:18;99016.00;;;7.97
16759;BMP280;8497;51.346;12.396;2024-03-25T04:08:44;99016.88;;;7.98
16759;BMP280;8497;51.346;12.396;2024-03-25T04:11:13;99004.91;;;7.89
16759;BMP280;8497;51.346;12.396;2024-03-25T04:13:40;99019.75;;;7.83
16759;BMP280;8497;51.346;12.396;2024-03-25T04:16:09;99017.13;;;7.79
16759;BMP280;8497;51.346;12.396;2024-03-25T04:18:35;99023.72;;;7.77
16759;BMP280;8497;51.346;12.396;2024-03-25T04:21:03;99025.16;;;7.69
16759;BMP280;8497;51.346;12.396;2024-03-25T04:23:32;99027.47;;;7.63
16759;BMP280;8497;51.346;12.396;2024-03-25T04:26:01;99040.09;;;7.66
16759;BMP280;8497;51.346;12.396;2024-03-25T04:28:29;99036.91;;;7.70
16759;BMP280;8497;51.346;12.396;2024-03-25T04:30:59;99028.56;;;7.71
16759;BMP280;8497;51.346;12.396;2024-03-25T04:33:25;99037.00;;;7.73
16759;BMP280;8497;51.346;12.396;2024-03-25T04:35:53;99044.53;;;7.73
16759;BMP280;8497;51.346;12.396;2024-03-25T04:38:19;99035.13;;;7.68
16759;BMP280;8497;51.346;12.396;2024-03-25T04:40:46;99045.88;;;7.64
16759;BMP280;8497;51.346;12.396;2024-03-25T04:43:12;99045.06;;;7.65
16759;BMP280;8497;51.346;12.396;2024-03-25T04:45:41;99046.59;;;7.60
16759;BMP280;8497;51.346;12.396;2024-03-25T04:48:07;99049.84;;;7.57
16759;BMP280;8497;51.346;12.396;2024-03-25T04:50:34;99054.75;;;7.54
16759;BMP280;8497;51.346;12.396;2024-03-25T04:53:01;99048.94;;;7.55
16759;BMP280;8497;51.346;12.396;2024-03-25T04:55:28;99064.13;;;7.60
16759;BMP280;8497;51.346;12.396;2024-03-25T04:57:54;99063.38;;;7.62
16759;BMP280;8497;51.346;12.396;2024-03-25T05:00:21;99065.94;;;7.64
16759;BMP280;8497;51.346;12.396;2024-03-25T05:02:51;99068.56;;;7.68
16759;BMP280;8497;51.346;12.396;2024-03-25T05:05:18;99070.19;;;7.66
16759;BMP280;8497;51.346;12.396;2024-03-25T05:07:44;99066.78;;;7.64
16759;BMP280;8497;51.346;12.396;2024-03-25T05:10:11;99087.69;;;7.65
16759;BMP280;8497;51.346;12.396;2024-03-25T05:12:38;99083.44;;;7.62
16759;BMP280;8497;51.346;12.396;2024-03-25T05:15:05;99083.41;;;7.61
16759;BMP280;8497;51.346;12.396;2024-03-25T05:17:32;99082.56;;;7.62
16759;BMP280;8497;51.346;12.396;2024-03-25T05:20:00;99090.19;;;7.65
16759;BMP280;8497;51.346;12.396;2024-03-25T05:22:26;99091.06;;;7.65
16759;BMP280;8497;51.346;12.396;2024-03-25T05:24:53;99096.03;;;7.64
16759;BMP280;8497;51.346;12.396;2024-03-25T05:27:20;99092.69;;;7.65
16759;BMP280;8497;51.346;12.396;2024-03-25T05:29:46;99085.13;;;7.63
16759;BMP280;8497;51.346;12.396;2024-03-25T05:32:13;99102.72;;;7.65
16759;BMP280;8497;51.346;12.396;2024-03-25T05:34:39;99106.22;;;7.70
16759;BMP280;8497;51.346;12.396;2024-03-25T05:37:07;99103.81;;;7.72
16759;BMP280;8497;51.346;12.396;2024-03-25T05:39:34;99114.78;;;7.74
16759;BMP280;8497;51.346;12.396;2024-03-25T05:42:00;99109.88;;;7.77
16759;BMP280;8497;51.346;12.396;2024-03-25T05:44:27;99102.41;;;7.79
16759;BMP280;8497;51.346;12.396;2024-03-25T05:46:54;99105.06;;;7.85
16759;BMP280;8497;51.346;12.396;2024-03-25T05:49:20;99112.69;;;7.88
16759;BMP280;8497;51.346;12.396;2024-03-25T05:51:47;99113.56;;;7.88
16759;BMP280;8497;51.346;12.396;2024-03-25T05:54:19;99119.44;;;7.89
16759;BMP280;8497;51.346;12.396;2024-03-25T05:56:45;99116.13;;;7.90
16759;BMP280;8497;51.346;12.396;2024-03-25T05:59:12;99123.66;;;7.90
16759;BMP280;8497;51.346;12.396;2024-03-25T06:01:39;99124.53;;;7.92
16759;BMP280;8497;51.346;12.396;2024-03-25T06:04:05;99128.78;;;7.93
16759;BMP280;8497;51.346;12.396;2024-03-25T06:06:32;99138.06;;;7.97
16759;BMP280;8497;51.346;12.396;2024-03-25T06:08:58;99138.19;;;8.00
16759;BMP280;8497;51.346;12.396;2024-03-25T06:11:26;99131.66;;;8.05
16759;BMP280;8497;51.346;12.396;2024-03-25T06:13:53;99135.91;;;8.07
16759;BMP280;8497;51.346;12.396;2024-03-25T06:16:20;99139.56;;;8.15
16759;BMP280;8497;51.346;12.396;2024-03-25T06:18:46;99148.22;;;8.24
16759;BMP280;8497;51.346;12.396;2024-03-25T06:21:13;99149.09;;;8.26
16759;BMP280;8497;51.346;12.396;2024-03-25T06:23:39;99156.84;;;8.32
16759;BMP280;8497;51.346;12.396;2024-03-25T06:26:06;99162.78;;;8.34
16759;BMP280;8497;51.346;12.396;2024-03-25T06:28:34;99154.50;;;8.38
16759;BMP280;8497;51.346;12.396;2024-03-25T06:31:00;99163.66;;;8.36
16759;BMP280;8497;51.346;12.396;2024-03-25T06:33:45;99173.59;;;8.33
16759;BMP280;8497;51.346;12.396;2024-03-25T06:36:30;99172.53;;;8.25
16759;BMP280;8497;51.346;12.396;2024-03-25T06:38:57;99176.00;;;8.30
16759;BMP280;8497;51.346;12.396;2024-03-25T06:41:24;99186.25;;;8.36
16759;BMP280;8497;51.346;12.396;2024-03-25T06:43:52;99183.84;;;8.39
16759;BMP280;8497;51.346;12.396;2024-03-25T06:46:18;99178.09;;;8.43
16759;BMP280;8497;51.346;12.396;2024-03-25T06:48:45;99180.00;;;8.50
16759;BMP280;8497;51.346;12.396;2024-03-25T06:51:11;99185.91;;;8.52
16759;BMP280;8497;51.346;12.396;2024-03-25T06:53:38;99190.44;;;8.64
16759;BMP280;8497;51.346;12.396;2024-03-25T06:56:05;99187.50;;;8.76
16759;BMP280;8497;51.346;12.396;2024-03-25T06:58:31;99192.78;;;8.84
16759;BMP280;8497;51.346;12.396;2024-03-25T07:01:07;99194.72;;;8.94
16759;BMP280;8497;51.346;12.396;2024-03-25T07:03:34;99201.66;;;9.01
16759;BMP280;8497;51.346;12.396;2024-03-25T07:06:01;99202.53;;;9.03
16759;BMP280;8497;51.346;12.396;2024-03-25T07:08:28;99202.53;;;9.03
16759;BMP280;8497;51.346;12.396;2024-03-25T07:10:55;99215.19;;;9.06
16759;BMP280;8497;51.346;12.396;2024-03-25T07:13:22;99214.50;;;9.11
16759;BMP280;8497;51.346;12.396;2024-03-25T07:15:49;99218.03;;;9.17
16759;BMP280;8497;51.346;12.396;2024-03-25T07:18:17;99214.22;;;9.28
16759;BMP280;8497;51.346;12.396;2024-03-25T07:20:44;99219.41;;;9.36
16759;BMP280;8497;51.346;12.396;2024-03-25T07:23:11;99217.38;;;9.52
16759;BMP280;8497;51.346;12.396;2024-03-25T07:25:38;99218.28;;;9.54
16759;BMP280;8497;51.346;12.396;2024-03-25T07:28:07;99213.56;;;9.66
16759;BMP280;8497;51.346;12.396;2024-03-25T07:30:34;99219.63;;;9.72
16759;BMP280;8497;51.346;12.396;2024-03-25T07:33:01;99225.66;;;9.79
16759;BMP280;8497;51.346;12.396;2024-03-25T07:35:29;99224.84;;;9.80
16759;BMP280;8497;51.346;12.396;2024-03-25T07:37:57;99232.69;;;9.90
16759;BMP280;8497;51.346;12.396;2024-03-25T07:40:31;99224.56;;;9.99
16759;BMP280;8497;51.346;12.396;2024-03-25T07:43:03;99229.75;;;10.04
16759;BMP280;8497;51.346;12.396;2024-03-25T07:45:32;99219.72;;;10.06
16759;BMP280;8497;51.346;12.396;2024-03-25T07:48:00;99240.28;;;10.22
16759;BMP280;8497;51.346;12.396;2024-03-25T07:50:28;99235.38;;;10.28
16759;BMP280;8497;51.346;12.396;2024-03-25T07:52:55;99232.06;;;10.29
16759;BMP280;8497;51.346;12.396;2024-03-25T07:55:23;99232.28;;;10.38
16759;BMP280;8497;51.346;12.396;2024-03-25T07:57:50;99235.91;;;10.49
16759;BMP280;8497;51.346;12.396;2024-03-25T08:00:17;99240.41;;;10.62
16759;BMP280;8497;51.346;12.396;2024-03-25T08:02:44;99245.69;;;10.71
16759;BMP280;8497;51.346;12.396;2024-03-25T08:05:10;99247.41;;;10.72
16759;BMP280;8497;51.346;12.396;2024-03-25T08:07:38;99246.44;;;10.67
16759;BMP280;8497;51.346;12.396;2024-03-25T08:10:06;99249.03;;;10.71
16759;BMP280;8497;51.346;12.396;2024-03-25T08:12:33;99255.13;;;10.79
16759;BMP280;8497;51.346;12.396;2024-03-25T08:14:59;99257.97;;;10.94
16759;BMP280;8497;51.346;12.396;2024-03-25T08:17:26;99255.66;;;11.03
16759;BMP280;8497;51.346;12.396;2024-03-25T08:19:52;99251.63;;;11.09
16759;BMP280;8497;51.346;12.396;2024-03-25T08:22:23;99260.75;;;11.04
16759;BMP280;8497;51.346;12.396;2024-03-25T08:24:58;99259.94;;;11.05
16759;BMP280;8497;51.346;12.396;2024-03-25T08:27:25;99273.06;;;10.93
16759;BMP280;8497;51.346;12.396;2024-03-25T08:29:52;99272.84;;;10.84
16759;BMP280;8497;51.346;12.396;2024-03-25T08:32:18;99278.88;;;10.89
16759;BMP280;8497;51.346;12.396;2024-03-25T08:34:47;99280.38;;;10.81
16759;BMP280;8497;51.346;12.396;2024-03-25T08:37:20;99276.44;;;10.58
16759;BMP280;8497;51.346;12.396;2024-03-25T08:39:46;99287.94;;;10.47
16759;BMP280;8497;51.346;12.396;2024-03-25T08:42:22;99291.25;;;10.46
16759;BMP280;8497;51.346;12.396;2024-03-25T08:44:55;99298.00;;;10.47
16759;BMP280;8497;51.346;12.396;2024-03-25T08:47:24;99299.84;;;10.54
16759;BMP280;8497;51.346;12.396;2024-03-25T08:49:52;99296.03;;;10.69
16759;BMP280;8497;51.346;12.396;2024-03-25T08:52:22;99302.28;;;10.85
16759;BMP280;8497;51.346;12.396;2024-03-25T08:55:10;99297.47;;;10.94
16759;BMP280;8497;51.346;12.396;2024-03-25T08:57:45;99297.50;;;10.95
16759;BMP280;8497;51.346;12.396;2024-03-25T09:00:14;99293.53;;;11.04
16759;BMP280;8497;51.346;12.396;2024-03-25T09:02:40;99297.25;;;11.20
16759;BMP280;8497;51.346;12.396;2024-03-25T09:05:07;99296.06;;;11.42
16759;BMP280;8497;51.346;12.396;2024-03-25T09:07:34;99300.50;;;11.52
16759;BMP280;8497;51.346;12.396;2024-03-25T09:10:01;99293.88;;;11.57
16759;BMP280;8497;51.346;12.396;2024-03-25T09:12:47;99294.03;;;11.65
16759;BMP280;8497;51.346;12.396;2024-03-25T09:15:14;99290.38;;;11.90
16759;BMP280;8497;51.346;12.396;2024-03-25T09:17:40;99286.94;;;12.31
16759;BMP280;8497;51.346;12.396;2024-03-25T09:20:08;99291.97;;;12.31
16759;BMP280;8497;51.346;12.396;2024-03-25T09:22:36;99297.50;;;12.11
16759;BMP280;8497;51.346;12.396;2024-03-25T09:25:03;99302.50;;;11.67
16759;BMP280;8497;51.346;12.396;2024-03-25T09:27:29;99305.84;;;11.29
16759;BMP280;8497;51.346;12.396;2024-03-25T09:29:57;99311.78;;;10.95
16759;BMP280;8497;51.346;12.396;2024-03-25T09:32:35;99315.66;;;10.82
16759;BMP280;8497;51.346;12.396;2024-03-25T09:35:05;99318.72;;;11.04
16759;BMP280;8497;51.346;12.396;2024-03-25T09:37:38;99313.69;;;11.41
16759;BMP280;8497;51.346;12.396;2024-03-25T09:40:06;99319.16;;;11.59
16759;BMP280;8497;51.346;12.396;2024-03-25T09:42:38;99314.44;;;11.37
16759;BMP280;8497;51.346;12.396;2024-03-25T09:45:11;99317.97;;;11.07
16759;BMP280;8497;51.346;12.396;2024-03-25T09:47:39;99326.03;;;10.94
16759;BMP280;8497;51.346;12.396;2024-03-25T09:50:08;99327.09;;;11.03
16759;BMP280;8497;51.346;12.396;2024-03-25T09:52:36;99321.16;;;11.37
16759;BMP280;8497;51.346;12.396;2024-03-25T09:55:03;99316.19;;;11.78
16759;BMP280;8497;51.346;12.396;2024-03-25T09:57:30;99308.63;;;12.20
16759;BMP280;8497;51.346;12.396;2024-03-25T09:59:57;99312.25;;;12.34
16759;BMP280;8497;51.346;12.396;2024-03-25T10:02:26;99315.75;;;12.42
16759;BMP280;8497;51.346;12.396;2024-03-25T10:04:54;99310.06;;;12.52
16759;BMP280;8497;51.346;12.396;2024-03-25T10:07:25;99322.91;;;12.65
16759;BMP280;8497;51.346;12.396;2024-03-25T10:09:52;99318.28;;;12.87
16759;BMP280;8497;51.346;12.396;2024-03-25T10:12:22;99317.81;;;13.12
16759;BMP280;8497;51.346;12.396;2024-03-25T10:14:48;99310.25;;;13.14
16759;BMP280;8497;51.346;12.396;2024-03-25T10:17:15;99315.28;;;13.12
16759;BMP280;8497;51.346;12.396;2024-03-25T10:19:43;99309.53;;;13.24
16759;BMP280;8497;51.346;12.396;2024-03-25T10:22:10;99311.84;;;13.68
16759;BMP280;8497;51.346;12.396;2024-03-25T10:24:41;99302.28;;;14.11
16759;BMP280;8497;51.346;12.396;2024-03-25T10:27:18;99300.59;;;14.11
16759;BMP280;8497;51.346;12.396;2024-03-25T10:29:45;99302.16;;;14.02
16759;BMP280;8497;51.346;12.396;2024-03-25T10:32:13;99301.31;;;14.01
16759;BMP280;8497;51.346;12.396;2024-03-25T10:34:40;99289.97;;;13.72
16759;BMP280;8497;51.346;12.396;2024-03-25T10:37:10;99308.16;;;13.45
16759;BMP280;8497;51.346;12.396;2024-03-25T10:39:43;99306.16;;;13.22
16759;BMP280;8497;51.346;12.396;2024-03-25T10:42:18;99309.28;;;13.06
16759;BMP280;8497;51.346;12.396;2024-03-25T10:44:45;99302.53;;;13.05
16759;BMP280;8497;51.346;12.396;2024-03-25T10:47:19;99322.97;;;13.18
16759;BMP280;8497;51.346;12.396;2024-03-25T10:49:50;99315.53;;;13.30
16759;BMP280;8497;51.346;12.396;2024-03-25T10:52:21;99322.06;;;13.16
16759;BMP280;8497;51.346;12.396;2024-03-25T10:54:49;99321.63;;;12.86
16759;BMP280;8497;51.346;12.396;2024-03-25T10:57:17;99317.88;;;12.67
16759;BMP280;8497;51.346;12.396;2024-03-25T10:59:45;99314.81;;;12.37
16759;BMP280;8497;51.346;12.396;2024-03-25T11:02:12;99319.66;;;12.25
16759;BMP280;8497;51.346;12.396;2024-03-25T11:04:40;99322.88;;;12.17
16759;BMP280;8497;51.346;12.396;2024-03-25T11:07:08;99323.09;;;12.29
16759;BMP280;8497;51.346;12.396;2024-03-25T11:09:36;99321.69;;;12.42
16759;BMP280;8497;51.346;12.396;2024-03-25T11:12:03;99322.63;;;12.49
16759;BMP280;8497;51.346;12.396;2024-03-25T11:14:31;99319.53;;;12.65
16759;BMP280;8497;51.346;12.396;2024-03-25T11:16:58;99323.91;;;12.75
16759;BMP280;8497;51.346;12.396;2024-03-25T11:19:29;99320.50;;;12.73
16759;BMP280;8497;51.346;12.396;2024-03-25T11:22:09;99324.97;;;12.84
16759;BMP280;8497;51.346;12.396;2024-03-25T11:24:43;99317.53;;;12.94
16759;BMP280;8497;51.346;12.396;2024-03-25T11:27:10;99323.13;;;12.78
16759;BMP280;8497;51.346;12.396;2024-03-25T11:29:37;99317.78;;;12.59
16759;BMP280;8497;51.346;12.396;2024-03-25T11:32:05;99318.16;;;12.36
16759;BMP280;8497;51.346;12.396;2024-03-25T11:34:32;99320.44;;;12.21
16759;BMP280;8497;51.346;12.396;2024-03-25T11:36:58;99314.84;;;11.94
16759;BMP280;8497;51.346;12.396;2024-03-25T11:39:25;99323.91;;;11.85
16759;BMP280;8497;51.346;12.396;2024-03-25T11:41:53;99316.19;;;11.78
16759;BMP280;8497;51.346;12.396;2024-03-25T11:44:20;99318.91;;;11.88
16759;BMP280;8497;51.346;12.396;2024-03-25T11:46:47;99307.00;;;12.24
16759;BMP280;8497;51.346;12.396;2024-03-25T11:49:16;99312.34;;;12.40
16759;BMP280;8497;51.346;12.396;2024-03-25T11:51:44;99304.78;;;12.40
16759;BMP280;8497;51.346;12.396;2024-03-25T11:54:11;99301.59;;;12.51
16759;BMP280;8497;51.346;12.396;2024-03-25T11:56:38;99298.25;;;12.52
16759;BMP280;8497;51.346;12.396;2024-03-25T11:59:07;99300.06;;;12.59
16759;BMP280;8497;51.346;12.396;2024-03-25T12:01:36;99300.91;;;12.60
16759;BMP280;8497;51.346;12.396;2024-03-25T12:04:10;99303.47;;;12.61
16759;BMP280;8497;51.346;12.396;2024-03-25T12:06:37;99304.09;;;12.50
16759;BMP280;8497;51.346;12.396;2024-03-25T12:09:03;99308.53;;;12.61
16759;BMP280;8497;51.346;12.396;2024-03-25T12:11:51;99304.41;;;12.68
16759;BMP280;8497;51.346;12.396;2024-03-25T12:14:19;99297.00;;;12.77
16759;BMP280;8497;51.346;12.396;2024-03-25T12:16:46;99301.44;;;12.89
16759;BMP280;8497;51.346;12.396;2024-03-25T12:19:13;99301.63;;;13.01
16759;BMP280;8497;51.346;12.396;2024-03-25T12:21:40;99297.28;;;12.93
16759;BMP280;8497;51.346;12.396;2024-03-25T12:24:07;99308.72;;;12.75
16759;BMP280;8497;51.346;12.396;2024-03-25T12:26:34;99306.13;;;12.69
16759;BMP280;8497;51.346;12.396;2024-03-25T12:29:01;99301.22;;;12.79
16759;BMP280;8497;51.346;12.396;2024-03-25T12:31:29;99300.44;;;12.81
16759;BMP280;8497;51.346;12.396;2024-03-25T12:33:56;99301.47;;;12.92
16759;BMP280;8497;51.346;12.396;2024-03-25T12:36:22;99294.50;;;12.79
16759;BMP280;8497;51.346;12.396;2024-03-25T12:38:54;99296.75;;;12.63
16759;BMP280;8497;51.346;12.396;2024-03-25T12:41:23;99299.19;;;12.57
16759;BMP280;8497;51.346;12.396;2024-03-25T12:43:51;99290.13;;;12.70
16759;BMP280;8497;51.346;12.396;2024-03-25T12:46:18;99286.78;;;12.71
16759;BMP280;8497;51.346;12.396;2024-03-25T12:48:46;99289.59;;;12.88
16759;BMP280;8497;51.346;12.396;2024-03-25T12:51:14;99284.75;;;13.00
16759;BMP280;8497;51.346;12.396;2024-03-25T12:53:41;99291.09;;;13.30
16759;BMP280;8497;51.346;12.396;2024-03-25T12:56:08;99281.03;;;13.33
16759;BMP280;8497;51.346;12.396;2024-03-25T12:58:37;99289.31;;;13.25
16759;BMP280;8497;51.346;12.396;2024-03-25T13:01:06;99290.03;;;13.14
16759;BMP280;8497;51.346;12.396;2024-03-25T13:03:36;99288.31;;;13.13
16759;BMP280;8497;51.346;12.396;2024-03-25T13:06:18;99285.53;;;12.95
16759;BMP280;8497;51.346;12.396;2024-03-25T13:08:47;99279.78;;;13.06
16759;BMP280;8497;51.346;12.396;2024-03-25T13:11:14;99276.06;;;13.42
16759;BMP280;8497;51.346;12.396;2024-03-25T13:13:42;99283.88;;;13.59
16759;BMP280;8497;51.346;12.396;2024-03-25T13:16:09;99286.53;;;13.68
16759;BMP280;8497;51.346;12.396;2024-03-25T13:18:35;99278.88;;;13.62
16759;BMP280;8497;51.346;12.396;2024-03-25T13:21:02;99288.75;;;13.44
16759;BMP280;8497;51.346;12.396;2024-03-25T13:23:33;99282.81;;;13.40
16759;BMP280;8497;51.346;12.396;2024-03-25T13:25:59;99277.63;;;13.33
16759;BMP280;8497;51.346;12.396;2024-03-25T13:28:26;99271.16;;;13.53
16759;BMP280;8497;51.346;12.396;2024-03-25T13:30:52;99267.97;;;13.67
16759;BMP280;8497;51.346;12.396;2024-03-25T13:33:19;99271.22;;;13.59
16759;BMP280;8497;51.346;12.396;2024-03-25T13:35:45;99266.13;;;13.56
16759;BMP280;8497;51.346;12.396;2024-03-25T13:38:12;99278.63;;;13.41
16759;BMP280;8497;51.346;12.396;2024-03-25T13:40:42;99278.53;;;13.35
16759;BMP280;8497;51.346;12.396;2024-03-25T13:43:08;99269.09;;;13.26
16759;BMP280;8497;51.346;12.396;2024-03-25T13:45:35;99274.97;;;13.21
16759;BMP280;8497;51.346;12.396;2024-03-25T13:48:02;99265.59;;;13.16
16759;BMP280;8497;51.346;12.396;2024-03-25T13:50:28;99270.53;;;13.08
16759;BMP280;8497;51.346;12.396;2024-03-25T13:52:55;99279.81;;;13.08
16759;BMP280;8497;51.346;12.396;2024-03-25T13:55:22;99269.72;;;13.09
16759;BMP280;8497;51.346;12.396;2024-03-25T13:57:50;99266.31;;;13.07
16759;BMP280;8497;51.346;12.396;2024-03-25T14:00:17;99270.41;;;13.01
16759;BMP280;8497;51.346;12.396;2024-03-25T14:02:43;99260.94;;;12.86
16759;BMP280;8497;51.346;12.396;2024-03-25T14:05:10;99262.41;;;12.76
16759;BMP280;8497;51.346;12.396;2024-03-25T14:07:36;99263.22;;;12.72
16759;BMP280;8497;51.346;12.396;2024-03-25T14:10:03;99260.63;;;12.67
16759;BMP280;8497;51.346;12.396;2024-03-25T14:12:30;99264.06;;;12.74
16759;BMP280;8497;51.346;12.396;2024-03-25T14:14:58;99261.59;;;12.77
16759;BMP280;8497;51.346;12.396;2024-03-25T14:17:25;99254.25;;;12.91
16759;BMP280;8497;51.346;12.396;2024-03-25T14:19:56;99249.53;;;13.12
16759;BMP280;8497;51.346;12.396;2024-03-25T14:22:23;99250.06;;;13.52